createdAt,value
2022-09-10T00:01:40.748Z,6.47
2022-09-10T00:04:12.851Z,5.60
2022-09-10T00:06:45.303Z,8.88
2022-09-10T00:09:14.670Z,9.00
2022-09-10T00:11:43.604Z,7.75
2022-09-10T00:14:19.938Z,7.43
2022-09-10T00:16:48.461Z,4.32
2022-09-10T00:19:17.370Z,5.57
2022-09-10T00:21:47.089Z,5.88
2022-09-10T00:24:15.583Z,5.73
2022-09-10T00:26:44.167Z,4.63
2022-09-10T00:29:15.183Z,6.38
2022-09-10T00:31:43.889Z,6.47
2022-09-10T00:34:14.248Z,5.85
2022-09-10T00:36:44.923Z,9.90
2022-09-10T00:41:47.777Z,9.77
2022-09-10T00:44:56.010Z,8.60
2022-09-10T00:47:30.895Z,9.63
2022-09-10T00:50:05.487Z,12.45
2022-09-10T00:52:39.431Z,9.20
2022-09-10T00:55:11.591Z,13.02
2022-09-10T00:57:41.237Z,9.00
2022-09-10T01:00:13.756Z,12.98
2022-09-10T01:02:43.750Z,8.60
2022-09-10T01:05:13.428Z,8.52
2022-09-10T01:07:42.865Z,7.60
2022-09-10T01:10:18.027Z,9.18
2022-09-10T01:13:15.956Z,9.70
2022-09-10T01:15:51.616Z,8.40
2022-09-10T01:18:34.912Z,9.90
2022-09-10T01:21:19.362Z,14.13
2022-09-10T01:24:30.655Z,8.20
2022-09-10T01:27:41.284Z,8.85
2022-09-10T01:30:15.738Z,7.70
2022-09-10T01:32:59.474Z,8.90
2022-09-10T01:35:39.246Z,9.80
2022-09-10T01:38:15.787Z,9.60
2022-09-10T01:40:46.425Z,8.27
2022-09-10T01:43:20.122Z,15.68
2022-09-10T01:46:11.635Z,9.77
2022-09-10T01:48:59.899Z,8.85
2022-09-10T01:51:40.309Z,7.63
2022-09-10T01:54:28.475Z,8.07
2022-09-10T01:57:10.987Z,8.40
2022-09-10T01:59:51.512Z,10.07
2022-09-10T02:02:25.260Z,10.55
2022-09-10T02:04:55.498Z,8.52
2022-09-10T02:07:27.230Z,11.80
2022-09-10T02:09:57.454Z,11.15
2022-09-10T02:12:27.879Z,11.52
2022-09-10T02:15:28.650Z,10.48
2022-09-10T02:18:07.450Z,11.23
2022-09-10T02:20:35.794Z,11.95
2022-09-10T02:23:04.906Z,13.85
2022-09-10T02:25:37.255Z,13.75
2022-09-10T02:28:06.199Z,11.65
2022-09-10T02:30:36.261Z,11.48
2022-09-10T02:33:04.791Z,14.55
2022-09-10T02:35:33.128Z,17.23
2022-09-10T02:38:01.547Z,12.18
2022-09-10T02:40:31.751Z,13.13
2022-09-10T02:43:00.467Z,12.82
2022-09-10T02:45:30.210Z,14.98
2022-09-10T02:48:01.565Z,14.75
2022-09-10T02:50:31.257Z,10.80
2022-09-10T02:53:00.986Z,10.68
2022-09-10T02:55:29.371Z,12.15
2022-09-10T02:57:58.316Z,9.35
2022-09-10T03:00:27.040Z,11.30
2022-09-10T03:03:00.869Z,8.63
2022-09-10T03:05:32.699Z,8.93
2022-09-10T03:08:01.431Z,10.50
2022-09-10T03:10:31.745Z,9.45
2022-09-10T03:13:00.428Z,10.00
2022-09-10T03:15:29.567Z,13.10
2022-09-10T03:17:58.261Z,10.77
2022-09-10T03:20:27.480Z,9.40
2022-09-10T03:22:57.242Z,11.57
2022-09-10T03:25:25.627Z,8.88
2022-09-10T03:27:59.789Z,9.95
2022-09-10T03:30:29.144Z,13.30
2022-09-10T03:32:57.793Z,11.35
2022-09-10T03:35:26.208Z,10.27
2022-09-10T03:37:56.035Z,10.82
2022-09-10T03:40:24.307Z,11.98
2022-09-10T03:42:52.601Z,8.75
2022-09-10T03:45:20.820Z,10.93
2022-09-10T03:47:49.057Z,8.63
2022-09-10T03:50:20.306Z,11.27
2022-09-10T03:52:48.608Z,10.23
2022-09-10T03:55:18.950Z,10.13
2022-09-10T04:00:17.718Z,13.63
2022-09-10T04:02:46.877Z,11.40
2022-09-10T04:05:16.000Z,9.85
2022-09-10T04:07:44.261Z,9.75
2022-09-10T04:10:14.680Z,13.60
2022-09-10T04:12:45.176Z,11.18
2022-09-10T04:15:13.767Z,15.88
2022-09-10T04:17:42.252Z,11.93
2022-09-10T04:20:12.010Z,13.85
2022-09-10T04:22:41.183Z,11.85
2022-09-10T04:25:10.714Z,16.35
2022-09-10T04:27:40.003Z,11.82
2022-09-10T04:30:12.416Z,11.23
2022-09-10T04:32:41.070Z,13.13
2022-09-10T04:35:11.170Z,13.38
2022-09-10T04:37:39.579Z,17.40
2022-09-10T04:40:09.667Z,14.30
2022-09-10T04:42:39.046Z,16.00
2022-09-10T04:45:10.927Z,12.88
2022-09-10T04:47:39.375Z,9.23
2022-09-10T04:50:10.263Z,11.75
2022-09-10T04:52:39.031Z,13.00
2022-09-10T04:55:09.692Z,13.73
2022-09-10T04:57:38.251Z,13.50
2022-09-10T05:00:09.007Z,8.55
2022-09-10T05:02:40.636Z,10.40
2022-09-10T05:05:09.943Z,12.63
2022-09-10T05:07:38.647Z,10.07
2022-09-10T05:10:10.509Z,11.80
2022-09-10T05:12:39.612Z,9.77
2022-09-10T05:15:09.984Z,10.93
2022-09-10T05:17:39.833Z,9.85
2022-09-10T05:22:45.392Z,10.65
2022-09-10T05:25:13.779Z,14.82
2022-09-10T05:27:42.790Z,15.45
2022-09-10T05:30:15.268Z,10.05
2022-09-10T05:32:45.184Z,14.63
2022-09-10T05:37:46.377Z,8.98
2022-09-10T05:40:16.256Z,12.52
2022-09-10T05:42:44.932Z,10.07
2022-09-10T05:45:14.019Z,10.23
2022-09-10T05:47:45.474Z,9.85
2022-09-10T05:50:18.621Z,8.25
2022-09-10T05:52:47.211Z,11.90
2022-09-10T05:55:15.774Z,10.50
2022-09-10T05:57:44.106Z,8.88
2022-09-10T06:00:15.951Z,12.02
2022-09-10T06:02:53.269Z,14.68
2022-09-10T06:05:31.991Z,10.98
2022-09-10T06:08:05.415Z,9.13
2022-09-10T06:10:38.558Z,9.68
2022-09-10T06:13:07.387Z,9.57
2022-09-10T06:15:37.889Z,10.65
2022-09-10T06:18:07.611Z,7.78
2022-09-10T06:20:37.001Z,7.80
2022-09-10T06:23:06.999Z,6.32
2022-09-10T06:25:35.257Z,5.47
2022-09-10T06:28:03.933Z,5.63
2022-09-10T06:30:32.449Z,4.55
2022-09-10T06:33:00.984Z,4.50
2022-09-10T06:35:32.402Z,4.68
2022-09-10T06:38:02.071Z,7.82
2022-09-10T06:40:30.367Z,7.18
2022-09-10T06:43:06.090Z,5.40
2022-09-10T06:46:02.032Z,6.53
2022-09-10T06:48:48.540Z,5.85
2022-09-10T06:51:20.535Z,8.20
2022-09-10T06:53:51.294Z,5.40
2022-09-10T06:56:22.095Z,6.10
2022-09-10T06:58:51.726Z,6.70
2022-09-10T07:01:23.786Z,7.20
2022-09-10T07:03:57.823Z,5.72
2022-09-10T07:06:31.822Z,6.18
2022-09-10T07:09:05.866Z,6.68
2022-09-10T07:11:41.529Z,6.25
2022-09-10T07:14:13.895Z,5.28
2022-09-10T07:16:44.567Z,6.30
2022-09-10T07:19:14.898Z,5.18
2022-09-10T07:21:47.536Z,5.45
2022-09-10T07:24:18.123Z,6.40
2022-09-10T07:27:00.324Z,6.57
2022-09-10T07:29:31.315Z,5.75
2022-09-10T07:32:01.704Z,4.43
2022-09-10T07:34:30.182Z,3.88
2022-09-10T07:36:59.920Z,6.30
2022-09-10T07:39:29.317Z,5.15
2022-09-10T07:42:00.318Z,5.70
2022-09-10T07:44:31.268Z,5.25
2022-09-10T07:47:03.415Z,6.45
2022-09-10T07:49:33.012Z,6.90
2022-09-10T07:52:03.343Z,6.38
2022-09-10T07:54:37.774Z,5.13
2022-09-10T07:57:06.957Z,5.72
2022-09-10T07:59:37.065Z,6.32
2022-09-10T08:02:06.468Z,8.27
2022-09-10T08:04:37.583Z,8.07
2022-09-10T08:07:11.250Z,9.75
2022-09-10T08:09:43.198Z,12.98
2022-09-10T08:12:17.350Z,12.43
2022-09-10T08:14:46.368Z,10.30
2022-09-10T08:17:14.990Z,11.23
2022-09-10T08:19:45.914Z,13.50
2022-09-10T08:22:15.654Z,15.25
2022-09-10T08:24:51.018Z,13.20
2022-09-10T08:27:20.194Z,12.57
2022-09-10T08:29:50.137Z,12.95
2022-09-10T08:32:18.490Z,15.68
2022-09-10T08:34:47.157Z,13.00
2022-09-10T08:37:17.277Z,13.43
2022-09-10T08:39:45.747Z,12.75
2022-09-10T08:42:21.625Z,10.63
2022-09-10T08:44:55.429Z,11.57
2022-09-10T08:47:36.143Z,11.35
2022-09-10T08:50:20.215Z,6.05
2022-09-10T08:52:55.963Z,6.80
2022-09-10T08:55:32.915Z,7.70
2022-09-10T08:58:11.468Z,7.18
2022-09-10T09:00:45.413Z,6.18
2022-09-10T09:03:24.136Z,4.10
2022-09-10T09:05:57.303Z,5.70
2022-09-10T09:08:38.517Z,6.03
2022-09-10T09:11:25.387Z,6.20
2022-09-10T09:14:12.834Z,4.18
2022-09-10T09:17:01.960Z,5.20
2022-09-10T09:19:35.015Z,4.80
2022-09-10T09:22:17.381Z,4.43
2022-09-10T09:27:27.159Z,5.80
2022-09-10T09:30:02.736Z,5.25
2022-09-10T09:32:37.249Z,5.85
2022-09-10T09:35:22.588Z,5.57
2022-09-10T09:38:08.945Z,6.35
2022-09-10T09:40:46.743Z,7.38
2022-09-10T09:43:25.291Z,7.75
2022-09-10T09:45:54.982Z,7.17
2022-09-10T09:48:24.990Z,7.72
2022-09-10T09:50:57.201Z,7.35
2022-09-10T09:53:27.624Z,9.80
2022-09-10T09:56:00.328Z,7.63
2022-09-10T09:58:34.969Z,8.30
2022-09-10T10:01:18.228Z,7.20
2022-09-10T10:03:52.221Z,6.60
2022-09-10T10:06:24.745Z,6.55
2022-09-10T10:09:06.142Z,6.05
2022-09-10T10:11:52.180Z,7.68
2022-09-10T10:14:27.724Z,7.82
2022-09-10T10:17:00.388Z,7.00
2022-09-10T10:19:40.316Z,8.68
2022-09-10T10:22:24.431Z,5.88
2022-09-10T10:24:54.427Z,5.95
2022-09-10T10:27:32.667Z,6.03
2022-09-10T10:30:06.063Z,5.93
2022-09-10T10:32:44.819Z,6.10
2022-09-10T10:35:36.110Z,5.00
2022-09-10T10:38:32.478Z,4.80
2022-09-10T10:41:42.795Z,5.60
2022-09-10T10:44:33.666Z,6.10
2022-09-10T10:47:25.123Z,5.03
2022-09-10T10:50:08.991Z,5.75
2022-09-10T10:52:45.670Z,4.68
2022-09-10T10:55:23.195Z,4.78
2022-09-10T10:58:18.878Z,7.38
2022-09-10T11:00:54.950Z,6.03
2022-09-10T11:03:30.543Z,5.10
2022-09-10T11:06:04.995Z,4.13
2022-09-10T11:08:38.604Z,6.53
2022-09-10T11:11:14.309Z,7.45
2022-09-10T11:13:52.150Z,4.85
2022-09-10T11:16:28.707Z,6.22
2022-09-10T11:19:03.637Z,5.07
2022-09-10T11:21:39.282Z,5.35
2022-09-10T11:24:17.236Z,5.38
2022-09-10T11:26:49.929Z,7.97
2022-09-10T11:29:32.874Z,6.13
2022-09-10T11:32:09.456Z,4.78
2022-09-10T11:35:03.549Z,5.97
2022-09-10T11:37:48.466Z,5.28
2022-09-10T11:40:25.456Z,5.32
2022-09-10T11:42:59.505Z,4.72
2022-09-10T11:45:38.092Z,6.90
2022-09-10T11:48:18.267Z,4.47
2022-09-10T11:50:53.395Z,7.03
2022-09-10T11:53:24.805Z,7.35
2022-09-10T11:56:43.461Z,5.82
2022-09-10T11:59:42.402Z,6.95
2022-09-10T12:02:58.496Z,6.28
2022-09-10T12:05:35.584Z,6.25
2022-09-10T12:08:17.561Z,8.02
2022-09-10T12:10:57.936Z,5.50
2022-09-10T12:13:26.497Z,5.00
2022-09-10T12:15:58.502Z,5.05
2022-09-10T12:18:38.708Z,4.10
2022-09-10T12:21:27.993Z,4.05
2022-09-10T12:23:57.606Z,5.57
2022-09-10T12:26:26.315Z,4.35
2022-09-10T12:29:05.378Z,5.82
2022-09-10T12:32:15.548Z,6.50
2022-09-10T12:34:44.887Z,6.30
2022-09-10T12:37:28.610Z,7.97
2022-09-10T12:40:45.279Z,4.38
2022-09-10T12:43:54.442Z,4.45
2022-09-10T12:46:25.681Z,7.22
2022-09-10T12:49:11.918Z,5.05
2022-09-10T12:51:58.725Z,6.00
2022-09-10T12:54:48.373Z,5.55
2022-09-10T12:57:31.105Z,4.97
2022-09-10T13:00:18.745Z,5.70
2022-09-10T13:02:55.090Z,5.65
2022-09-10T13:05:31.493Z,4.50
2022-09-10T13:08:18.183Z,4.78
2022-09-10T13:11:05.730Z,5.10
2022-09-10T13:13:39.062Z,5.10
2022-09-10T13:16:13.408Z,4.97
2022-09-10T13:18:41.895Z,5.93
2022-09-10T13:21:52.905Z,6.75
2022-09-10T13:25:01.184Z,3.90
2022-09-10T13:27:44.426Z,4.47
2022-09-10T13:30:18.758Z,6.45
2022-09-10T13:32:52.977Z,5.32
2022-09-10T13:36:06.672Z,6.97
2022-09-10T13:39:29.534Z,4.65
2022-09-10T13:42:31.285Z,5.72
2022-09-10T13:45:29.300Z,4.88
2022-09-10T13:48:04.165Z,5.32
2022-09-10T13:50:40.241Z,4.38
2022-09-10T13:53:11.603Z,4.38
2022-09-10T13:55:41.203Z,4.85
2022-09-10T13:58:15.512Z,5.37
2022-09-10T14:00:55.961Z,8.20
2022-09-10T14:03:29.777Z,7.28
2022-09-10T14:06:04.024Z,5.70
2022-09-10T14:08:38.444Z,3.95
2022-09-10T14:11:15.917Z,4.75
2022-09-10T14:13:51.873Z,7.85
2022-09-10T14:16:30.079Z,6.63
2022-09-10T14:19:02.830Z,5.63
2022-09-10T14:21:31.607Z,5.55
2022-09-10T14:24:00.862Z,3.88
2022-09-10T14:26:33.552Z,6.38
2022-09-10T14:29:04.003Z,6.82
2022-09-10T14:31:38.248Z,6.15
2022-09-10T14:34:36.121Z,5.97
2022-09-10T14:37:45.194Z,5.38
2022-09-10T14:40:19.731Z,6.05
2022-09-10T14:42:49.832Z,7.63
2022-09-10T14:45:41.630Z,6.10
2022-09-10T14:48:36.961Z,7.70
2022-09-10T14:51:14.420Z,6.45
2022-09-10T14:53:43.783Z,7.18
2022-09-10T14:56:23.226Z,5.72
2022-09-10T14:58:59.351Z,9.00
2022-09-10T15:01:28.447Z,4.97
2022-09-10T15:03:59.270Z,5.20
2022-09-10T15:06:27.966Z,5.63
2022-09-10T15:08:57.084Z,7.97
2022-09-10T15:11:27.543Z,4.72
2022-09-10T15:13:58.752Z,5.88
2022-09-10T15:16:27.571Z,6.13
2022-09-10T15:18:58.171Z,6.90
2022-09-10T15:23:54.879Z,7.25
2022-09-10T15:26:23.268Z,6.38
2022-09-10T15:28:52.665Z,6.15
2022-09-10T15:31:21.080Z,5.13
2022-09-10T15:33:49.394Z,5.90
2022-09-10T15:36:19.286Z,6.25
2022-09-10T15:38:47.509Z,5.45
2022-09-10T15:41:16.946Z,6.93
2022-09-10T15:43:45.767Z,6.95
2022-09-10T15:46:17.066Z,5.75
2022-09-10T15:48:47.455Z,4.28
2022-09-10T15:51:21.392Z,8.43
2022-09-10T15:53:52.294Z,6.70
2022-09-10T15:56:24.182Z,5.80
2022-09-10T15:58:55.057Z,5.43
2022-09-10T16:01:25.022Z,6.75
2022-09-10T16:03:56.126Z,7.00
2022-09-10T16:06:28.427Z,7.28
2022-09-10T16:09:01.947Z,7.25
2022-09-10T16:11:32.170Z,7.10
2022-09-10T16:14:04.733Z,9.25
2022-09-10T16:16:34.766Z,4.53
2022-09-10T16:19:04.261Z,7.30
2022-09-10T16:21:37.148Z,6.47
2022-09-10T16:24:07.324Z,9.40
2022-09-10T16:26:38.683Z,7.82
2022-09-10T16:29:12.876Z,6.10
2022-09-10T16:31:41.631Z,6.93
2022-09-10T16:34:14.104Z,7.68
2022-09-10T16:36:44.621Z,8.75
2022-09-10T16:39:15.539Z,7.05
2022-09-10T16:41:46.339Z,7.82
2022-09-10T16:44:17.469Z,7.25
2022-09-10T16:46:47.081Z,4.97
2022-09-10T16:49:18.156Z,10.33
2022-09-10T16:51:49.340Z,7.45
2022-09-10T16:54:19.842Z,6.32
2022-09-10T16:56:50.242Z,10.73
2022-09-10T16:59:20.812Z,9.95
2022-09-10T17:04:23.370Z,7.70
2022-09-10T17:06:56.102Z,6.50
2022-09-10T17:09:24.796Z,8.52
2022-09-10T17:11:53.339Z,9.43
2022-09-10T17:14:21.626Z,7.93
2022-09-10T17:16:49.966Z,8.32
2022-09-10T17:19:23.140Z,9.13
2022-09-10T17:21:56.154Z,9.52
2022-09-10T17:24:26.611Z,6.78
2022-09-10T17:26:56.122Z,5.65
2022-09-10T17:29:26.571Z,8.18
2022-09-10T17:31:57.353Z,5.57
2022-09-10T17:34:27.090Z,12.18
2022-09-10T17:36:56.694Z,6.67
2022-09-10T17:39:28.180Z,6.95
2022-09-10T17:41:57.062Z,7.68
2022-09-10T17:44:25.727Z,8.10
2022-09-10T17:46:55.109Z,6.38
2022-09-10T17:49:23.930Z,8.88
2022-09-10T17:51:53.297Z,7.82
2022-09-10T17:54:23.444Z,5.88
2022-09-10T17:56:51.932Z,7.20
2022-09-10T17:59:21.193Z,8.43
2022-09-10T18:01:49.629Z,6.97
2022-09-10T18:04:19.288Z,8.35
2022-09-10T18:06:52.065Z,6.23
2022-09-10T18:09:23.538Z,6.75
2022-09-10T18:11:51.963Z,7.18
2022-09-10T18:14:21.920Z,6.63
2022-09-10T18:16:51.429Z,8.95
2022-09-10T18:19:20.062Z,7.13
2022-09-10T18:21:51.032Z,9.75
2022-09-10T18:24:24.021Z,10.25
2022-09-10T18:26:54.805Z,7.70
2022-09-10T18:29:25.965Z,8.95
2022-09-10T18:31:56.244Z,7.68
2022-09-10T18:34:27.753Z,8.63
2022-09-10T18:36:58.350Z,6.82
2022-09-10T18:39:30.514Z,7.05
2022-09-10T18:42:00.936Z,10.40
2022-09-10T18:44:33.216Z,14.18
2022-09-10T18:47:02.005Z,10.00
2022-09-10T18:49:30.372Z,8.15
2022-09-10T18:51:58.761Z,8.38
2022-09-10T18:54:29.631Z,8.73
2022-09-10T18:56:58.751Z,9.55
2022-09-10T18:59:27.824Z,8.75
2022-09-10T19:01:56.875Z,11.95
2022-09-10T19:04:27.642Z,8.80
2022-09-10T19:09:29.670Z,9.07
2022-09-10T19:12:00.406Z,7.82
2022-09-10T19:14:35.663Z,10.57
2022-09-10T19:17:04.745Z,7.18
2022-09-10T19:19:36.200Z,11.15
2022-09-10T19:22:07.287Z,9.10
2022-09-10T19:24:54.455Z,9.50
2022-09-10T19:27:23.330Z,9.73
2022-09-10T19:29:51.902Z,9.52
2022-09-10T19:32:21.057Z,8.88
2022-09-10T19:34:50.992Z,8.32
2022-09-10T19:37:19.571Z,8.75
2022-09-10T19:39:49.245Z,13.07
2022-09-10T19:42:17.873Z,10.68
2022-09-10T19:44:46.167Z,8.07
2022-09-10T19:47:14.451Z,12.00
2022-09-10T19:49:43.147Z,11.45
2022-09-10T19:52:11.723Z,8.05
2022-09-10T19:54:39.914Z,11.70
2022-09-10T19:57:09.541Z,9.73
2022-09-10T19:59:38.144Z,10.18
2022-09-10T20:02:06.481Z,15.80
2022-09-10T20:04:36.207Z,11.93
2022-09-10T20:07:05.009Z,10.60
2022-09-10T20:09:36.733Z,10.98
2022-09-10T20:12:10.198Z,12.57
2022-09-10T20:14:39.046Z,9.98
2022-09-10T20:17:07.471Z,10.60
2022-09-10T20:19:36.061Z,9.93
2022-09-10T20:22:04.273Z,14.50
2022-09-10T20:24:32.929Z,10.35
2022-09-10T20:27:01.245Z,13.27
2022-09-10T20:29:32.862Z,14.80
2022-09-10T20:32:01.406Z,11.70
2022-09-10T20:34:31.243Z,12.50
2022-09-10T20:36:59.887Z,10.88
2022-09-10T20:39:28.208Z,11.95
2022-09-10T20:41:56.487Z,9.73
2022-09-10T20:44:26.151Z,9.75
2022-09-10T20:46:57.578Z,11.02
2022-09-10T20:49:25.938Z,13.85
2022-09-10T20:51:54.143Z,9.07
2022-09-10T20:54:22.598Z,8.30
2022-09-10T20:56:50.823Z,9.57
2022-09-10T20:59:20.858Z,10.68
2022-09-10T21:01:52.927Z,12.00
2022-09-10T21:04:22.928Z,12.35
2022-09-10T21:06:51.283Z,10.85
2022-09-10T21:09:19.622Z,10.30
2022-09-10T21:11:47.834Z,10.38
2022-09-10T21:14:17.151Z,11.20
2022-09-10T21:16:47.250Z,12.57
2022-09-10T21:19:17.581Z,11.57
2022-09-10T21:21:48.783Z,12.80
2022-09-10T21:24:19.281Z,11.73
2022-09-10T21:26:47.713Z,13.07
2022-09-10T21:29:17.907Z,15.15
2022-09-10T21:31:46.328Z,15.27
2022-09-10T21:34:15.520Z,12.75
2022-09-10T21:36:44.094Z,13.48
2022-09-10T21:39:18.415Z,14.05
2022-09-10T21:41:48.821Z,17.00
2022-09-10T21:44:20.297Z,15.75
2022-09-10T21:46:49.865Z,17.40
2022-09-10T21:49:18.872Z,19.25
2022-09-10T21:51:47.573Z,15.88
2022-09-10T21:54:20.720Z,17.10
2022-09-10T21:56:50.503Z,19.10
2022-09-10T21:59:19.383Z,19.53
2022-09-10T22:01:48.617Z,17.75
2022-09-10T22:04:21.726Z,15.05
2022-09-10T22:06:51.042Z,18.98
2022-09-10T22:09:21.309Z,13.65
2022-09-10T22:11:52.015Z,28.42
2022-09-10T22:14:23.268Z,15.63
2022-09-10T22:16:53.728Z,11.15
2022-09-10T22:19:23.950Z,12.25
2022-09-10T22:21:54.049Z,14.75
2022-09-10T22:24:24.083Z,19.10
2022-09-10T22:26:52.695Z,13.68
2022-09-10T22:29:22.262Z,18.67
2022-09-10T22:31:50.710Z,17.60
2022-09-10T22:34:20.667Z,16.50
2022-09-10T22:36:50.301Z,12.32
2022-09-10T22:39:20.821Z,13.30
2022-09-10T22:41:52.133Z,12.02
2022-09-10T22:44:20.524Z,11.27
2022-09-10T22:46:49.139Z,13.18
2022-09-10T22:49:17.977Z,16.05
2022-09-10T22:51:46.870Z,18.50
2022-09-10T22:54:16.577Z,15.90
2022-09-10T22:56:45.531Z,16.50
2022-09-10T22:59:16.475Z,15.43
2022-09-10T23:01:48.170Z,15.82
2022-09-10T23:04:17.292Z,22.95
2022-09-10T23:06:45.722Z,18.80
2022-09-10T23:09:15.895Z,24.45
2022-09-10T23:11:45.441Z,16.45
2022-09-10T23:14:19.263Z,17.55
2022-09-10T23:16:50.019Z,15.77
2022-09-10T23:21:51.077Z,20.15
2022-09-10T23:24:21.948Z,14.80
2022-09-10T23:26:50.681Z,14.07
2022-09-10T23:29:23.008Z,13.50
2022-09-10T23:31:53.245Z,13.25
2022-09-10T23:34:22.851Z,15.07
2022-09-10T23:36:51.504Z,10.57
2022-09-10T23:39:22.448Z,11.30
2022-09-10T23:41:53.320Z,10.55
2022-09-10T23:44:23.709Z,8.02
2022-09-10T23:46:53.466Z,11.27
2022-09-10T23:49:21.709Z,12.03
2022-09-10T23:51:50.579Z,12.88
2022-09-10T23:54:19.072Z,14.00
2022-09-10T23:56:47.406Z,11.65
2022-09-10T23:59:16.286Z,12.27
